createdAt,value
2022-12-05T00:04:00.944Z,1.13
2022-12-05T00:09:04.188Z,1.11
2022-12-05T00:14:08.672Z,1.10
2022-12-05T00:19:13.559Z,1.10
2022-12-05T00:24:16.734Z,1.11
2022-12-05T00:29:18.738Z,1.12
2022-12-05T00:34:23.189Z,1.09
2022-12-05T00:39:25.009Z,1.08
2022-12-05T00:44:26.844Z,1.04
2022-12-05T00:49:28.993Z,1.01
2022-12-05T00:54:30.920Z,1.01
2022-12-05T00:59:32.726Z,0.98
2022-12-05T01:04:34.547Z,0.98
2022-12-05T01:09:36.392Z,1.01
2022-12-05T01:14:38.343Z,0.98
2022-12-05T01:19:40.257Z,0.98
2022-12-05T01:24:42.124Z,1.00
2022-12-05T01:29:43.987Z,1.03
2022-12-05T01:34:45.920Z,1.07
2022-12-05T01:39:49.145Z,1.04
2022-12-05T01:44:51.006Z,1.00
2022-12-05T01:49:52.906Z,0.99
2022-12-05T01:55:00.188Z,0.99
2022-12-05T02:00:10.173Z,1.06
2022-12-05T02:05:21.191Z,1.07
2022-12-05T02:10:23.460Z,1.06
2022-12-05T02:15:50.027Z,1.06
2022-12-05T02:21:33.553Z,1.08
2022-12-05T02:26:54.905Z,1.16
2022-12-05T02:32:21.535Z,1.13
2022-12-05T02:37:30.644Z,1.08
2022-12-05T02:43:00.272Z,1.07
2022-12-05T02:48:03.964Z,1.06
2022-12-05T02:53:11.707Z,1.05
2022-12-05T02:58:21.729Z,1.08
2022-12-05T03:03:24.861Z,1.07
2022-12-05T03:08:32.256Z,1.04
2022-12-05T03:13:52.330Z,1.00
2022-12-05T03:18:59.957Z,1.00
2022-12-05T03:24:06.887Z,1.01
2022-12-05T03:29:43.142Z,1.03
2022-12-05T03:35:11.742Z,0.99
2022-12-05T03:40:52.877Z,0.99
2022-12-05T03:46:06.827Z,1.03
2022-12-05T03:51:13.578Z,1.05
2022-12-05T03:56:21.323Z,1.03
2022-12-05T04:01:25.830Z,1.03
2022-12-05T04:06:37.241Z,1.05
2022-12-05T04:11:44.168Z,1.07
2022-12-05T04:17:03.586Z,1.07
2022-12-05T04:22:05.483Z,1.09
2022-12-05T04:27:25.419Z,1.11
2022-12-05T04:32:31.175Z,1.15
2022-12-05T04:37:37.438Z,1.19
2022-12-05T04:42:42.780Z,1.21
2022-12-05T04:47:50.370Z,1.20
2022-12-05T04:52:55.455Z,1.18
2022-12-05T04:58:07.867Z,1.16
2022-12-05T05:03:45.122Z,1.17
2022-12-05T05:08:52.372Z,1.12
2022-12-05T05:13:54.433Z,1.05
2022-12-05T05:18:56.908Z,1.01
2022-12-05T05:23:59.708Z,1.00
2022-12-05T05:29:02.524Z,0.98
2022-12-05T05:34:09.442Z,0.94
2022-12-05T05:39:15.432Z,0.89
2022-12-05T05:44:17.500Z,0.82
2022-12-05T05:49:19.352Z,0.82
2022-12-05T05:54:21.186Z,0.83
2022-12-05T05:59:23.221Z,0.82
2022-12-05T06:04:25.119Z,0.81
2022-12-05T06:09:27.307Z,0.83
2022-12-05T06:14:29.173Z,0.89
2022-12-05T06:19:31.006Z,0.91
2022-12-05T06:24:32.878Z,0.90
2022-12-05T06:29:35.902Z,0.92
2022-12-05T06:34:37.836Z,0.92
2022-12-05T06:39:39.817Z,0.96
2022-12-05T06:44:41.657Z,1.02
2022-12-05T06:49:43.501Z,1.03
2022-12-05T06:54:46.929Z,1.07
2022-12-05T06:59:48.875Z,1.09
2022-12-05T07:04:50.707Z,1.15
2022-12-05T07:09:53.962Z,1.20
2022-12-05T07:14:55.815Z,1.26
2022-12-05T07:19:57.831Z,1.34
2022-12-05T07:24:59.881Z,1.45
2022-12-05T07:30:02.096Z,1.54
2022-12-05T07:35:04.479Z,1.60
2022-12-05T07:40:06.976Z,1.68
2022-12-05T07:45:09.560Z,1.77
2022-12-05T07:50:11.607Z,1.88
2022-12-05T07:55:13.420Z,2.07
2022-12-05T08:00:15.895Z,2.22
2022-12-05T08:05:17.726Z,2.32
2022-12-05T08:10:19.590Z,2.43
2022-12-05T08:15:21.483Z,2.51
2022-12-05T08:20:23.445Z,2.57
2022-12-05T08:25:25.426Z,2.60
2022-12-05T08:30:27.387Z,2.64
2022-12-05T08:35:29.443Z,2.71
2022-12-05T08:40:31.404Z,2.74
2022-12-05T08:45:33.244Z,2.86
2022-12-05T08:50:35.060Z,3.08
2022-12-05T08:55:37.927Z,3.31
2022-12-05T09:00:40.734Z,3.49
2022-12-05T09:05:42.693Z,3.70
2022-12-05T09:10:44.505Z,3.93
2022-12-05T09:15:46.390Z,4.02
2022-12-05T09:20:48.180Z,4.04
2022-12-05T09:25:56.219Z,4.06
2022-12-05T09:31:01.427Z,4.03
2022-12-05T09:36:08.535Z,3.97
2022-12-05T09:41:13.455Z,3.97
2022-12-05T09:46:54.329Z,4.04
2022-12-05T09:51:58.612Z,4.17
2022-12-05T09:57:01.813Z,4.27
2022-12-05T10:02:15.652Z,4.33
2022-12-05T10:07:30.580Z,4.34
2022-12-05T10:13:00.046Z,4.34
2022-12-05T10:18:24.292Z,4.36
2022-12-05T10:23:56.663Z,4.37
2022-12-05T10:29:04.460Z,4.34
2022-12-05T10:34:17.547Z,4.36
2022-12-05T10:39:19.517Z,4.36
2022-12-05T10:44:21.270Z,4.38
2022-12-05T10:49:24.396Z,4.38
2022-12-05T10:54:30.419Z,4.38
2022-12-05T10:59:46.486Z,4.29
2022-12-05T11:04:49.316Z,4.22
2022-12-05T11:09:52.129Z,4.14
2022-12-05T11:14:59.690Z,4.09
2022-12-05T11:20:03.008Z,4.11
2022-12-05T11:25:29.062Z,4.14
2022-12-05T11:30:30.955Z,4.18
2022-12-05T11:35:32.811Z,4.20
2022-12-05T11:40:50.018Z,4.19
2022-12-05T11:46:07.428Z,4.16
2022-12-05T11:51:36.797Z,4.16
2022-12-05T11:56:43.864Z,4.21
2022-12-05T12:01:48.483Z,4.18
2022-12-05T12:07:25.014Z,4.22
2022-12-05T12:12:55.026Z,4.26
2022-12-05T12:18:24.219Z,4.30
2022-12-05T12:23:37.226Z,4.34
2022-12-05T12:28:46.423Z,4.38
2022-12-05T12:34:05.063Z,4.42
2022-12-05T12:39:40.724Z,4.49
2022-12-05T12:45:05.245Z,4.53
2022-12-05T12:50:16.226Z,4.56
2022-12-05T12:55:21.160Z,4.58
2022-12-05T13:00:48.258Z,4.58
2022-12-05T13:06:29.774Z,4.59
2022-12-05T13:11:39.101Z,4.56
2022-12-05T13:16:46.301Z,4.59
2022-12-05T13:21:48.619Z,4.62
2022-12-05T13:26:50.912Z,4.68
2022-12-05T13:31:53.112Z,4.73
2022-12-05T13:37:16.299Z,4.79
2022-12-05T13:42:37.886Z,4.83
2022-12-05T13:47:59.603Z,4.91
2022-12-05T13:53:07.680Z,4.99
2022-12-05T13:58:18.706Z,5.06
2022-12-05T14:03:32.909Z,5.15
2022-12-05T14:08:52.493Z,5.19
2022-12-05T14:13:58.019Z,5.20
2022-12-05T14:19:16.727Z,5.19
2022-12-05T14:24:43.875Z,5.17
2022-12-05T14:29:54.753Z,5.13
2022-12-05T14:35:02.826Z,5.09
2022-12-05T14:40:32.381Z,5.07
2022-12-05T14:45:40.487Z,5.07
2022-12-05T14:50:48.096Z,5.06
2022-12-05T14:55:55.569Z,5.07
2022-12-05T15:01:01.121Z,5.07
2022-12-05T15:06:06.528Z,5.10
2022-12-05T15:11:28.099Z,5.12
2022-12-05T15:16:31.698Z,5.12
2022-12-05T15:21:41.380Z,5.10
2022-12-05T15:26:56.620Z,5.08
2022-12-05T15:32:02.395Z,5.06
2022-12-05T15:37:15.708Z,5.02
2022-12-05T15:42:17.772Z,5.01
2022-12-05T15:47:24.736Z,4.92
2022-12-05T15:52:42.793Z,4.87
2022-12-05T15:57:50.401Z,4.85
2022-12-05T16:02:59.432Z,4.84
2022-12-05T16:08:06.104Z,4.80
2022-12-05T16:13:14.242Z,4.78
2022-12-05T16:18:29.616Z,4.76
2022-12-05T16:23:37.512Z,4.78
2022-12-05T16:28:39.586Z,4.80
2022-12-05T16:33:43.685Z,4.83
2022-12-05T16:38:47.064Z,4.82
2022-12-05T16:43:49.269Z,4.82
2022-12-05T16:49:20.509Z,4.84
2022-12-05T16:54:22.270Z,4.87
2022-12-05T16:59:31.287Z,4.90
2022-12-05T17:04:33.341Z,4.91
2022-12-05T17:09:35.175Z,4.91
2022-12-05T17:14:36.937Z,4.85
2022-12-05T17:19:38.666Z,4.81
2022-12-05T17:24:40.391Z,4.81
2022-12-05T17:29:42.140Z,4.80
2022-12-05T17:34:43.982Z,4.81
2022-12-05T17:39:45.735Z,4.75
2022-12-05T17:44:47.465Z,4.68
2022-12-05T17:49:49.450Z,4.63
2022-12-05T17:54:51.181Z,4.58
2022-12-05T17:59:53.194Z,4.53
2022-12-05T18:04:55.014Z,4.48
2022-12-05T18:09:56.766Z,4.44
2022-12-05T18:14:58.669Z,4.41
2022-12-05T18:20:00.703Z,4.40
2022-12-05T18:25:03.586Z,4.36
2022-12-05T18:30:07.050Z,4.33
2022-12-05T18:35:12.843Z,4.32
2022-12-05T18:40:15.098Z,4.33
2022-12-05T18:45:16.848Z,4.34
2022-12-05T18:50:18.660Z,4.37
2022-12-05T18:55:31.032Z,4.42
2022-12-05T19:00:40.228Z,4.40
2022-12-05T19:05:43.340Z,4.34
2022-12-05T19:10:45.106Z,4.34
2022-12-05T19:15:46.974Z,4.39
2022-12-05T19:20:50.870Z,4.43
2022-12-05T19:25:59.544Z,4.44
2022-12-05T19:31:07.103Z,4.42
2022-12-05T19:36:12.266Z,4.36
2022-12-05T19:41:16.401Z,4.34
2022-12-05T19:46:21.092Z,4.34
2022-12-05T19:51:23.654Z,4.39
2022-12-05T19:56:26.861Z,4.46
2022-12-05T20:01:31.501Z,4.51
2022-12-05T20:06:39.349Z,4.55
2022-12-05T20:11:43.826Z,4.54
2022-12-05T20:16:45.831Z,4.51
2022-12-05T20:21:47.721Z,4.45
2022-12-05T20:26:49.630Z,4.38
2022-12-05T20:31:54.277Z,4.32
2022-12-05T20:36:56.248Z,4.25
2022-12-05T20:41:58.120Z,4.24
2022-12-05T20:46:59.864Z,4.30
2022-12-05T20:52:01.732Z,4.36
2022-12-05T20:57:03.703Z,4.39
2022-12-05T21:02:05.556Z,4.41
2022-12-05T21:07:07.696Z,4.44
2022-12-05T21:12:09.466Z,4.45
2022-12-05T21:17:13.817Z,4.46
2022-12-05T21:22:15.826Z,4.45
2022-12-05T21:27:17.715Z,4.46
2022-12-05T21:32:19.471Z,4.46
2022-12-05T21:37:21.256Z,4.45
2022-12-05T21:42:23.042Z,4.43
2022-12-05T21:47:25.048Z,4.43
2022-12-05T21:52:26.807Z,4.44
2022-12-05T21:57:32.031Z,4.45
2022-12-05T22:02:33.905Z,4.45
2022-12-05T22:07:35.712Z,4.43
2022-12-05T22:12:46.240Z,4.44
2022-12-05T22:17:48.491Z,4.48
2022-12-05T22:22:50.644Z,4.50
2022-12-05T22:27:55.318Z,4.50
2022-12-05T22:32:57.589Z,4.51
2022-12-05T22:37:59.331Z,4.53
2022-12-05T22:43:01.077Z,4.55
2022-12-05T22:48:08.488Z,4.58
2022-12-05T22:53:10.415Z,4.59
2022-12-05T22:58:12.361Z,4.61
2022-12-05T23:03:15.346Z,4.62
2022-12-05T23:08:17.275Z,4.61
2022-12-05T23:13:19.346Z,4.61
2022-12-05T23:18:21.508Z,4.59
2022-12-05T23:23:23.430Z,4.57
2022-12-05T23:28:25.397Z,4.52
2022-12-05T23:33:27.592Z,4.51
2022-12-05T23:38:29.694Z,4.50
2022-12-05T23:43:33.304Z,4.48
2022-12-05T23:48:35.240Z,4.46
2022-12-05T23:53:39.727Z,4.41
2022-12-05T23:58:42.032Z,4.39
